Memorial Village's Hourly Summary for Wednesday, July 11, 2018
Hour Temp
(f)
RH
(%)
Solar Rad.
(MJ/m2)
Rainfall
(in)
Wind
(mph)
7/11/2018 12:00 AM 80 80 0 0 0.04
7/11/2018 1:00 AM 78 82 0 0 0
7/11/2018 2:00 AM 77 89 0 0 0
7/11/2018 3:00 AM 77 91 0 0 0
7/11/2018 4:00 AM 76 92 0 0 0
7/11/2018 5:00 AM 75 95 0 0 0
7/11/2018 6:00 AM 75 96 0.01 0 0
7/11/2018 7:00 AM 76 94 0.16 0 0
7/11/2018 8:00 AM 80 78 0.47 0 0.85
7/11/2018 9:00 AM 84 65 0.98 0 0.72
7/11/2018 10:00 AM 86 60 1.59 0 0.31
7/11/2018 11:00 AM 88 52 2.36 0 0.7
7/11/2018 12:00 PM 91 48 3.2 0 1.02
7/11/2018 1:00 PM 92 44 3.25 0 1.26
7/11/2018 2:00 PM 93 40 3.08 0 0.84
7/11/2018 3:00 PM 94 37 2.79 0 1.24
7/11/2018 4:00 PM 95 37 2.4 0 0.93
7/11/2018 5:00 PM 93 40 1.48 0 1.04
7/11/2018 6:00 PM 93 40 1.03 0 0.6
7/11/2018 7:00 PM 91 42 0.24 0 0.64
7/11/2018 8:00 PM 88 62 0.03 0 0.98
7/11/2018 9:00 PM 86 66 0 0 0.88
7/11/2018 10:00 PM 84 70 0 0 0.97
7/11/2018 11:00 PM 83 74 0 0 0.74
Data Summary 84 65 23.07 0.00 0.57